Terminal Aerodrome Forecast
Issued by NWS Cleveland, OH

Home | Current Version | Previous Version | Graphics & Text | Print | Product List | Glossary On
Versions: 1 2 3 4 5 6 7 8 9 10 11 12 13 14 15 16
677
FTUS41 KCLE 220826 AAA
TAFTOL
TAF AMD
KTOL 220826Z 2208/2306 16004KT 6SM -SHRA BKN050 OVC090
      TEMPO 2209/2212 4SM -RA
     FM221500 22010KT 6SM -SHRA VCTS SCT030CB OVC050
     FM221700 24010KT P6SM SCT040 BKN080=

USA.gov is the U.S. government's official web portal to all federal, state and local government web resources and services.